• Join FlightAware (Why Join?)
  • Login
  • US Flag 
05:51AM EDT


 

Airport Tracker/Info


-or-


 

Live Flight TrackerFlight Track Log ✈ AVA42 ✈ 06-Oct-2013 ✈ SKRG / MDE - KJFK

Flight Track Log - Related Links

Times and Time Zones

All times are in EDT time to prevent confusion due to time zone crossing. See the AVA42 flight status page for this flight to view local times or setup timezone preferences in your user account.

Time Position Orientation Groundspeed Altitude Reporting Facility
EDT Latitude Longitude Course Direction KTS MPH feet Rate Location/Type
01:03AM 6.8160 -75.4020 350° North 399 459 17,200  Level FlightAware
01:04AM 6.8760 -75.4130 350° North 399 459 17,200 1,500 Level FlightAware
01:04AM 6.9560 -75.4270 350° North 409 471 19,100 2,280 Climbing FlightAware
01:05AM 7.0220 -75.4380 351° North 412 474 19,900 1,440 Climbing FlightAware
01:05AM 7.0770 -75.4480 350° North 412 474 20,700 1,200 Climbing FlightAware
01:06AM 7.1630 -75.4630 350° North 425 489 21,400 960 Climbing FlightAware
01:07AM 7.2330 -75.4760 350° North 432 497 22,000 1,080 Climbing FlightAware
01:07AM 7.3100 -75.4890 350° North 436 502 22,800 1,200 Climbing FlightAware
01:08AM 7.3520 -75.4990 347° North 439 505 23,200 1,200 Climbing FlightAware
01:08AM 7.4070 -75.5260 334° Northwest 443 510 23,800 1,080 Climbing FlightAware
01:09AM 7.4710 -75.5580 334° Northwest 445 512 24,400 780 Climbing FlightAware
01:09AM 7.5370 -75.6000 328° Northwest 451 519 24,800 840 Climbing FlightAware
01:10AM 7.5960 -75.6370 328° Northwest 453 521 25,400 840 Climbing FlightAware
01:11AM 7.6580 -75.6760 328° Northwest 457 526 25,800 780 Climbing FlightAware
01:11AM 7.7060 -75.7020 332° Northwest 458 527 26,200 900 Climbing FlightAware
01:11AM 7.7350 -75.7090 347° North 459 528 26,400 660 Climbing FlightAware
01:12AM 7.8010 -75.7180 352° North 467 537 26,700 720 Climbing FlightAware
01:12AM 7.8850 -75.7320 351° North 472 543 27,300 780 Climbing FlightAware
01:13AM 7.9600 -75.7440 351° North 477 549 27,700 900 Climbing FlightAware
01:13AM 8.0280 -75.7550 351° North 475 547 28,300 900 Climbing FlightAware
01:14AM 8.1050 -75.7670 351° North 477 549 28,700 660 Climbing FlightAware
01:15AM 8.1790 -75.7780 352° North 481 554 29,100 840 Climbing FlightAware
01:15AM 8.2580 -75.7910 351° North 480 552 29,700 960 Climbing FlightAware
01:16AM 8.3550 -75.8060 351° North 482 555 30,400 960 Climbing FlightAware
01:16AM 8.4230 -75.8170 351° North 484 557 30,900 1,260 Climbing FlightAware
01:17AM 8.5140 -75.8310 351° North 481 554 31,900 840 Climbing FlightAware
01:18AM 8.6080 -75.8460 351° North 480 552 32,200 180 Climbing FlightAware
01:18AM 8.6750 -75.8570 351° North 480 552 32,200  Level FlightAware
01:19AM 8.7440 -75.8680 351° North 480 552 32,200  Level FlightAware
01:20AM 8.8130 -75.8790 351° North 480 552 32,200  Level FlightAware
01:20AM 8.8800 -75.8900 351° North 480 552 32,200  Level FlightAware
01:21AM 8.9470 -75.9010 351° North 480 552 32,200  Level FlightAware
01:22AM 9.0140 -75.9110 352° North 480 552 32,200  Level FlightAware
01:22AM 9.0810 -75.9220 351° North 480 552 32,200 1,680 Level FlightAware
01:23AM 9.2310 -75.9450 351° North 475 547 34,000 1,560 Climbing FlightAware
01:23AM 9.3200 -75.9590 351° North 476 548 34,000  Level FlightAware
01:24AM 9.3980 -75.9710 351° North 476 548 34,000  Level FlightAware
01:24AM 9.4740 -75.9840 350° North 476 548 34,000  Level FlightAware
01:25AM 9.5480 -75.9950 352° North 476 548 34,000  Level FlightAware
01:26AM 9.6240 -76.0070 351° North 476 548 34,000  Level FlightAware
01:26AM 9.7030 -76.0200 351° North 476 548 34,000  Level FlightAware
01:27AM 9.7790 -76.0320 351° North 475 547 34,000  Level FlightAware
01:27AM 9.8540 -76.0440 351° North 475 547 34,000  Level FlightAware
01:28AM 9.9290 -76.0560 351° North 474 545 34,000  Level FlightAware
01:28AM 10.0080 -76.0690 351° North 473 544 34,000  Level FlightAware
01:29AM 10.0800 -76.0800 351° North 473 544 34,000  Level FlightAware
01:30AM 10.1580 -76.0920 351° North 473 544 34,000  Level FlightAware
01:30AM 10.2340 -76.1050 350° North 473 544 34,000  Level FlightAware
01:31AM 10.3110 -76.1170 351° North 473 544 34,000  Level FlightAware
01:31AM 10.3880 -76.1290 351° North 473 544 34,000  Level FlightAware
01:32AM 10.4630 -76.1410 351° North 473 544 34,000  Level FlightAware
01:33AM 10.5370 -76.1530 351° North 473 544 34,000  Level FlightAware
01:33AM 10.6130 -76.1650 351° North 473 544 34,000  Level FlightAware
01:34AM 10.6890 -76.1780 350° North 473 544 34,000  Level FlightAware
01:34AM 10.7670 -76.1900 351° North 473 544 34,000  Level FlightAware
01:35AM 10.8410 -76.2020 351° North 474 545 34,000  Level FlightAware
01:35AM 10.9200 -76.2150 351° North 474 545 34,000  Level FlightAware
01:36AM 10.9960 -76.2270 351° North 474 545 34,000  Level FlightAware
01:37AM 11.0710 -76.2390 351° North 473 544 34,000  Level FlightAware
01:37AM 11.1410 -76.2500 351° North 473 544 34,000  Level FlightAware
01:38AM 11.2230 -76.2630 351° North 473 544 34,000  Level FlightAware
01:38AM 11.2920 -76.2740 351° North 472 543 34,000  Level FlightAware
01:39AM 11.3730 -76.2870 351° North 472 543 34,000  Level FlightAware
01:40AM 11.4490 -76.3000 350° North 470 541 34,000  Level FlightAware
01:40AM 11.5220 -76.3110 352° North 468 539 34,000  Level FlightAware
01:41AM 11.6270 -76.3280 351° North 466 536 34,000  Level FlightAware
01:42AM 11.6940 -76.3390 351° North 466 536 34,000  Level FlightAware
01:42AM 11.7830 -76.3540 351° North 722 831 34,000  Level FlightAware
01:45AM 12.0681 -76.3334 North  Level Estimated
01:46AM 12.1939 -76.3243 North  Level Estimated
01:47AM 12.3197 -76.3152 North  Level Estimated
01:48AM 12.4455 -76.3061 North  Level Estimated
01:49AM 12.5713 -76.2970 North  Level Estimated
01:50AM 12.6971 -76.2878 North  Level Estimated
01:51AM 12.8229 -76.2787 North  Level Estimated
01:52AM 12.9487 -76.2695 North  Level Estimated
01:53AM 13.0744 -76.2604 North  Level Estimated
01:54AM 13.2002 -76.2512 North  Level Estimated
01:55AM 13.3260 -76.2420 North  Level Estimated
01:56AM 13.4518 -76.2328 North  Level Estimated
01:57AM 13.5776 -76.2236 North  Level Estimated
01:58AM 13.7034 -76.2144 North  Level Estimated
01:59AM 13.8292 -76.2052 North  Level Estimated
02:00AM 13.9550 -76.1960 North  Level Estimated
02:01AM 14.0808 -76.1867 North  Level Estimated
02:02AM 14.2066 -76.1775 North  Level Estimated
02:03AM 14.3323 -76.1682 North  Level Estimated
02:04AM 14.4581 -76.1590 North  Level Estimated
02:05AM 14.5839 -76.1497 North  Level Estimated
02:06AM 14.7097 -76.1404 North  Level Estimated
02:07AM 14.8355 -76.1311 North  Level Estimated
02:08AM 14.9613 -76.1218 North  Level Estimated
02:09AM 15.0871 -76.1125 North  Level Estimated
02:10AM 15.2128 -76.1031 North  Level Estimated
02:11AM 15.3386 -76.0938 North  Level Estimated
02:12AM 15.4644 -76.0844 North  Level Estimated
02:13AM 15.5902 -76.0751 North  Level Estimated
02:14AM 15.7160 -76.0657 North  Level Estimated
02:15AM 15.8417 -76.0563 North  Level Estimated
02:16AM 15.9675 -76.0469 North  Level Estimated
02:17AM 16.0933 -76.0375 North  Level Estimated
02:18AM 16.2191 -76.0281 North  Level Estimated
02:19AM 16.3449 -76.0186 North  Level Estimated
02:20AM 16.4706 -76.0092 North  Level Estimated
02:21AM 16.5964 -75.9997 North  Level Estimated
02:22AM 16.7222 -75.9902 North  Level Estimated
02:23AM 16.8480 -75.9807 North  Level Estimated
02:24AM 16.9737 -75.9712 North  Level Estimated
02:25AM 17.0995 -75.9617 North  Level Estimated
02:26AM 17.2253 -75.9522 North  Level Estimated
02:27AM 17.3511 -75.9427 North  Level Estimated
02:28AM 17.4769 -75.9331 North  Level Estimated
02:29AM 17.6026 -75.9236 North  Level Estimated
02:30AM 17.7284 -75.9140 North  Level Estimated
02:31AM 17.8542 -75.9044 North  Level Estimated
02:32AM 17.9800 -75.8948 North  Level Estimated
02:33AM 18.1057 -75.8852 North  Level Estimated
02:34AM 18.2315 -75.8755 North  Level Estimated
02:35AM 18.3573 -75.8659 North  Level Estimated
02:36AM 18.4830 -75.8562 North  Level Estimated
02:37AM 18.6088 -75.8465 North  Level Estimated
02:38AM 18.7346 -75.8369 North  Level Estimated
02:39AM 18.8603 -75.8272 North  Level Estimated
02:40AM 18.9861 -75.8174 North  Level Estimated
02:41AM 19.1119 -75.8077 North  Level Estimated
02:42AM 19.2377 -75.7980 North  Level Estimated
02:43AM 19.3634 -75.7882 North  Level Estimated
02:44AM 19.4892 -75.7784 North  Level Estimated
02:45AM 19.6150 -75.7686 North  Level Estimated
02:46AM 19.7407 -75.7588 North  Level Estimated
02:47AM 19.8665 -75.7490 North  Level Estimated
02:48AM 19.9923 -75.7392 North  Level Estimated
02:49AM 20.1180 -75.7293 North  Level Estimated
02:50AM 20.2438 -75.7194 North  Level Estimated
02:51AM 20.3696 -75.7095 North  Level Estimated
02:52AM 20.4953 -75.6997 North  Level Estimated
02:53AM 20.6211 -75.6897 North  Level Estimated
02:54AM 20.7468 -75.6798 North  Level Estimated
02:55AM 20.8726 -75.6698 North  Level Estimated
02:56AM 20.9984 -75.6599 North  Level Estimated
02:57AM 21.1241 -75.6499 North  Level Estimated
02:58AM 21.2499 -75.6399 North  Level Estimated
02:59AM 21.3757 -75.6299 North  Level Estimated
03:00AM 21.5014 -75.6198 North  Level Estimated
03:01AM 21.6272 -75.6098 North  Level Estimated
03:02AM 21.7529 -75.5997 North  Level Estimated
03:03AM 21.8787 -75.5896 North  Level Estimated
03:04AM 22.0044 -75.5795 North  Level Estimated
03:05AM 22.1302 -75.5694 North  Level Estimated
03:06AM 22.2560 -75.5592 North  Level Estimated
03:07AM 22.3817 -75.5491 North  Level Estimated
03:08AM 22.5075 -75.5389 North  Level Estimated
03:09AM 22.6332 -75.5287 North  Level Estimated
03:10AM 22.7590 -75.5185 North  Level Estimated
03:11AM 22.8847 -75.5082 North  Level Estimated
03:12AM 23.0105 -75.4980 North  Level Estimated
03:13AM 23.1362 -75.4877 North  Level Estimated
03:14AM 23.2565 -75.4779 North  Level Estimated
03:15AM 23.3769 -75.4680 North  Level Estimated
03:16AM 23.4972 -75.4581 North  Level Estimated
03:17AM 23.6175 -75.4482 North  Level Estimated
03:17AM 23.2280 -78.9200 North 426 490 34,000  Level FlightAware
03:18AM 23.7378 -75.4383 North  Level Estimated
03:18AM 23.2910 -78.9330 349° North 426 490 34,000  Level FlightAware
03:18AM 23.3510 -78.9460 349° North 426 490 34,000  Level FlightAware
03:19AM 23.4120 -78.9580 350° North 426 490 34,000  Level FlightAware
03:19AM 23.4710 -78.9710 349° North 426 490 34,000  Level FlightAware
03:20AM 23.5300 -78.9840 349° North 426 490 34,000  Level FlightAware
03:21AM 23.6570 -79.0030 352° North 428 493 34,000  Level FlightAware
03:22AM 23.7490 -79.0220 349° North 428 493 34,000  Level FlightAware
03:22AM 23.8250 -79.0350 351° North 428 493 34,000  Level FlightAware
03:23AM 23.8860 -79.0470 350° North 427 491 34,000  Level FlightAware
03:23AM 23.9680 -79.0610 351° North 433 498 34,000  Level FlightAware
03:24AM 24.0560 -79.0610 360° North 434 499 34,000  Level FlightAware
03:25AM 24.1200 -79.0520 North 434 499 34,000 240 Level FlightAware
03:25AM 24.2080 -79.0400 North 436 502 34,300 780 Climbing FlightAware
03:26AM 24.2780 -79.0300 North 434 499 35,000 540 Climbing FlightAware
03:26AM 24.3560 -79.0190 North 425 489 35,000  Level FlightAware
03:27AM 24.4250 -79.0090 North 425 489 35,000  Level FlightAware
03:28AM 24.4950 -78.9990 North 425 489 35,000  Level FlightAware
03:28AM 24.5670 -78.9880 North 435 501 35,000  Level FlightAware
03:29AM 24.6460 -78.9770 North 435 501 35,000  Level FlightAware
03:29AM 24.7170 -78.9670 North 435 501 35,000  Level FlightAware
03:30AM 24.7970 -78.9550 North 435 501 35,000  Level FlightAware
03:31AM 24.8580 -78.9460 North 434 499 35,000  Level FlightAware
03:31AM 24.9250 -78.9370 North 425 489 35,000  Level FlightAware
03:32AM 25.0080 -78.9250 North 425 489 35,000  Level FlightAware
03:32AM 25.0620 -78.9170 North 424 488 35,000  Level FlightAware
03:33AM 25.1350 -78.9060 North 424 488 35,000  Level FlightAware
03:34AM 25.2040 -78.8960 North 424 488 35,000  Level FlightAware
03:34AM 25.2850 -78.8840 North 424 488 35,000  Level FlightAware
03:35AM 25.3440 -78.8760 North 423 487 35,000  Level FlightAware
03:35AM 25.4130 -78.8660 North 423 487 35,000  Level FlightAware
03:36AM 25.4850 -78.8550 North 422 486 35,000  Level FlightAware
03:36AM 25.5520 -78.8450 North 422 486 35,000  Level FlightAware
03:37AM 25.6310 -78.8340 North 423 487 35,000  Level FlightAware
03:38AM 25.6910 -78.8250 North 425 489 35,000  Level FlightAware
03:38AM 25.7610 -78.8150 North 425 489 35,000  Level FlightAware
03:39AM 25.8310 -78.8050 North 434 499 35,000  Level FlightAware
03:39AM 25.9110 -78.7930 North 434 499 35,000  Level FlightAware
03:40AM 25.9710 -78.7840 North 434 499 35,000  Level FlightAware
03:40AM 26.0340 -78.7750 North 426 490 35,000  Level FlightAware
03:41AM 26.1010 -78.7650 North 426 490 35,000  Level FlightAware
03:42AM 26.1750 -78.7540 North 425 489 35,000  Level FlightAware
03:42AM 26.2430 -78.7440 North 434 499 35,000  Level FlightAware
03:43AM 26.3120 -78.7340 North 436 502 35,000  Level FlightAware
03:43AM 26.3810 -78.7230 North 435 501 35,000  Level FlightAware
03:44AM 26.4600 -78.7120 North 434 499 35,000  Level FlightAware
03:45AM 26.5320 -78.7010 North 426 490 35,000  Level FlightAware
03:45AM 26.6020 -78.6910 North 424 488 35,000  Level FlightAware
03:46AM 26.6750 -78.6800 North 424 488 35,000  Level FlightAware
03:46AM 26.7500 -78.6680 North 430 495 35,000  Level FlightAware
03:47AM 26.8170 -78.6580 North 431 496 35,000  Level FlightAware
03:48AM 26.8820 -78.6480 North 424 488 35,000  Level FlightAware
03:48AM 26.9580 -78.6370 North 432 497 35,000  Level FlightAware
03:49AM 27.0140 -78.6290 North 432 497 35,000  Level FlightAware
03:49AM 27.0840 -78.6180 North 425 489 35,000  Level FlightAware
03:50AM 27.1740 -78.6040 North 425 489 35,000  Level FlightAware
03:51AM 27.2430 -78.5940 North 425 489 35,000  Level FlightAware
03:51AM 27.3110 -78.5840 North 425 489 35,000  Level FlightAware
03:52AM 27.3950 -78.5710 North 424 488 35,000  Level FlightAware
03:52AM 27.4540 -78.5620 North 424 488 35,000  Level FlightAware
03:53AM 27.5460 -78.5480 North 433 498 35,000  Level FlightAware
03:54AM 27.6100 -78.5380 North 433 498 35,000  Level FlightAware
03:54AM 27.6800 -78.5280 North 433 498 35,000  Level FlightAware
03:55AM 27.7930 -78.5100 North 434 499 35,000  Level FlightAware
03:56AM 27.8820 -78.4960 North 433 498 35,000  Level FlightAware
03:56AM 27.9430 -78.4870 North 431 496 35,000  Level FlightAware
03:57AM 28.0070 -78.4770 North 429 494 35,000  Level FlightAware
03:58AM 28.0870 -78.4650 North 428 493 35,000  Level FlightAware
03:58AM 28.1370 -78.4570 North 430 495 35,000  Level FlightAware
03:59AM 28.2310 -78.4430 North 430 495 35,000  Level FlightAware
04:00AM 28.3300 -78.4280 North 430 495 35,000  Level FlightAware
04:01AM 28.4250 -78.4120 North 425 489 35,000  Level FlightAware
04:01AM 28.5140 -78.3990 North 436 502 35,000  Level FlightAware
04:02AM 28.5950 -78.3860 North 435 501 35,000  Level FlightAware
04:03AM 28.6560 -78.3760 North 435 501 35,000  Level FlightAware
04:03AM 28.7190 -78.3660 North 435 501 35,000 -60 Level FlightAware
04:05AM 28.8781 -78.2808 North 419 482 34,900 -60 Descending Miami Center
04:06AM 28.9769 -78.1967 37° Northeast 419 482 34,900  Level Miami Center
04:07AM 29.0758 -78.1100 37° Northeast 430 495 35,000  Climbing Miami Center
04:08AM 29.1806 -78.0400 30° Northeast 435 501 35,000  Level Miami Center
04:09AM 29.2894 -77.9958 19° North 420 483 35,000  Level Miami Center
04:10AM 29.4086 -77.9733 North 420 483 35,000  Level Miami Center
04:11AM 29.5275 -77.9675 North 432 497 35,000  Level Miami Center
04:12AM 29.6486 -77.9542 North 429 494 35,000  Level Miami Center
04:13AM 29.8156 -77.9378 North 427 491 35,000  Level Jacksonville Center
04:14AM 29.9333 -77.9081 12° North 427 491 35,000  Level Jacksonville Center
04:15AM 30.0531 -77.8778 12° North 427 491 35,000  Level Jacksonville Center
04:16AM 30.1708 -77.8453 13° North 427 491 35,000  Level Jacksonville Center
04:17AM 30.2906 -77.8125 13° North 433 498 35,000  Level Jacksonville Center
04:18AM 30.4081 -77.7772 15° North 433 498 35,000  Level Jacksonville Center
04:19AM 30.5275 -77.7372 16° North 433 498 35,000  Level Jacksonville Center
04:20AM 30.6453 -77.7092 12° North 433 498 35,000  Level Jacksonville Center
04:21AM 30.7672 -77.6758 13° North 433 498 35,000  Level Jacksonville Center
04:22AM 30.8847 -77.6450 13° North 428 493 35,000  Level Jacksonville Center
04:23AM 31.0067 -77.6117 13° North 428 493 35,000 -60 Level Jacksonville Center
04:24AM 31.1242 -77.5783 14° North 433 498 34,900  Descending Jacksonville Center
04:25AM 31.2419 -77.5475 13° North 433 498 35,000  Climbing Jacksonville Center
04:26AM 31.3631 -77.5039 17° North 433 498 35,000  Level Jacksonville Center
04:27AM 31.4808 -77.4778 11° North 433 498 35,000  Level Jacksonville Center
04:28AM 31.6006 -77.4439 14° North 433 498 35,000  Level Jacksonville Center
04:29AM 31.7222 -77.4075 14° North 433 498 35,000 -60 Level Jacksonville Center
04:30AM 31.8544 -77.3753 12° North 438 504 34,900  Descending Jacksonville Center
04:31AM 31.9775 -77.3286 18° North 443 510 35,000  Climbing Jacksonville Center
04:32AM 32.0953 -77.3019 11° North 448 516 35,000  Level Jacksonville Center
04:33AM 32.2147 -77.2675 14° North 443 510 35,000  Level Jacksonville Center
04:34AM 32.3364 -77.2331 13° North 443 510 35,000  Level Jacksonville Center
04:35AM 32.4558 -77.1986 14° North 449 517 35,000  Level Jacksonville Center
04:36AM 32.5775 -77.1639 14° North 449 517 35,000 -60 Level Jacksonville Center
04:37AM 32.6989 -77.1264 15° North 449 517 34,900  Descending Jacksonville Center
04:39AM 32.8778 -77.0775 13° North 450 518 35,000  Climbing Washington Center
04:40AM 32.9969 -77.0400 15° North 444 511 35,000  Level Washington Center
04:41AM 33.1206 -77.0075 12° North 444 511 35,000  Level Washington Center
04:42AM 33.2419 -76.9722 14° North 444 511 35,000  Level Washington Center
04:47AM 33.5000 -76.8950 14° North 449 517 35,000  Level FlightAware
04:48AM 33.5920 -76.8680 14° North 448 516 35,000  Level FlightAware
04:49AM 33.6870 -76.8400 14° North 450 518 35,000  Level FlightAware
04:49AM 33.7660 -76.8160 14° North 453 521 35,000  Level FlightAware
04:50AM 33.8490 -76.7920 14° North 455 524 35,000  Level FlightAware
04:50AM 33.9190 -76.7710 14° North 455 524 35,000  Level FlightAware
04:51AM 34.0210 -76.7400 14° North 457 526 35,000  Level FlightAware
04:51AM 34.0740 -76.7240 14° North 456 525 35,000  Level FlightAware
04:52AM 34.1250 -76.7090 14° North 457 526 35,000  Level FlightAware
04:53AM 34.1940 -76.6880 14° North 457 526 35,000  Level FlightAware
04:53AM 34.2350 -76.6750 15° North 457 526 35,000  Level FlightAware
04:54AM 34.2910 -76.6580 14° North 457 526 35,000  Level FlightAware
04:55AM 34.3680 -76.6350 14° North 458 527 35,000  Level FlightAware
04:55AM 34.4450 -76.6120 14° North 458 527 35,000  Level FlightAware
04:56AM 34.5310 -76.5860 14° North 458 527 35,000  Level FlightAware
04:57AM 34.6040 -76.5640 14° North 458 527 35,000  Level FlightAware
04:57AM 34.6750 -76.5420 14° North 458 527 35,000  Level FlightAware
04:58AM 34.7570 -76.5170 14° North 458 527 35,000  Level FlightAware
04:59AM 34.8190 -76.4860 22° Northeast 462 532 35,000  Level FlightAware
04:59AM 34.8790 -76.4590 20° North 462 532 35,000  Level FlightAware
05:00AM 34.9420 -76.4310 20° North 462 532 35,000  Level FlightAware
05:00AM 35.0030 -76.4040 20° North 462 532 35,000  Level FlightAware
05:01AM 35.0670 -76.3760 20° North 462 532 35,000  Level FlightAware
05:02AM 35.1280 -76.3490 20° North 462 532 35,000  Level FlightAware
05:02AM 35.1890 -76.3210 21° North 462 532 35,000  Level FlightAware
05:03AM 35.2510 -76.2940 20° North 462 532 35,000  Level FlightAware
05:03AM 35.3120 -76.2670 20° North 462 532 35,000  Level FlightAware
05:04AM 35.3760 -76.2380 20° North 462 532 35,000  Level FlightAware
05:05AM 35.4540 -76.2030 20° North 462 532 35,000  Level FlightAware
05:05AM 35.5160 -76.1760 20° North 462 532 35,000  Level FlightAware
05:06AM 35.5770 -76.1480 20° North 462 532 35,000  Level FlightAware
05:07AM 35.6380 -76.1210 20° North 462 532 35,000  Level FlightAware
05:07AM 35.7000 -76.0930 20° North 462 532 35,000  Level FlightAware
05:08AM 36.4400 -75.7650 20° North 461 531 35,000  Level FlightAware
05:08AM 36.5030 -75.7360 20° North 461 531 35,000  Level FlightAware
05:09AM 36.5640 -75.7090 20° North 461 531 35,000  Level FlightAware
05:10AM 36.6260 -75.6810 20° North 461 531 35,000  Level FlightAware
05:10AM 36.7400 -75.6280 20° North 461 531 35,000  Level FlightAware
05:11AM 36.8230 -75.5900 20° North 461 531 35,000  Level FlightAware
05:12AM 36.8950 -75.5570 20° North 463 533 35,000  Level FlightAware
05:12AM 36.9860 -75.5150 20° North 471 542 35,000  Level FlightAware
05:13AM 37.0520 -75.4840 21° North 464 534 35,000  Level FlightAware
05:13AM 37.1220 -75.4520 20° North 462 532 35,000  Level FlightAware
05:14AM 37.1970 -75.4170 20° North 463 533 35,000  Level FlightAware
05:15AM 37.2690 -75.3840 20° North 462 532 35,000  Level FlightAware
05:15AM 37.3390 -75.3520 20° North 461 531 35,000  Level FlightAware
05:16AM 37.4100 -75.3180 21° North 462 532 35,000  Level FlightAware
05:16AM 37.4830 -75.2840 20° North 463 533 35,000  Level FlightAware
05:17AM 37.5540 -75.2510 20° North 464 534 35,000  Level FlightAware
05:17AM 37.6260 -75.2170 21° North 465 535 35,000  Level FlightAware
05:18AM 37.6960 -75.1840 20° North 465 535 35,000  Level FlightAware
05:19AM 37.7710 -75.1490 20° North 466 536 35,000  Level FlightAware
05:19AM 37.8440 -75.1140 21° North 466 536 35,000  Level FlightAware
05:20AM 37.9150 -75.0800 21° North 465 535 35,000  Level FlightAware
05:20AM 37.9880 -75.0460 20° North 466 536 35,000  Level FlightAware
05:21AM 38.0590 -75.0120 21° North 466 536 35,000  Level FlightAware
05:22AM 38.1320 -74.9770 21° North 466 536 35,000  Level FlightAware
05:22AM 38.2030 -74.9440 20° North 466 536 35,000  Level FlightAware
05:23AM 38.2760 -74.9090 21° North 466 536 35,000  Level FlightAware
05:23AM 38.3460 -74.8750 21° North 467 537 35,000  Level FlightAware
05:24AM 38.4150 -74.8420 21° North 468 539 35,000  Level FlightAware
05:24AM 38.4900 -74.8060 21° North 468 539 35,000  Level FlightAware
05:25AM 38.5600 -74.7720 21° North 468 539 35,000  Level FlightAware
05:26AM 38.6330 -74.7370 21° North 468 539 35,000 -120 Level FlightAware
05:26AM 38.7070 -74.7010 21° North 469 540 34,900 -1,020 Descending FlightAware
05:27AM 38.7780 -74.6660 21° North 478 550 33,800 -2,160 Descending FlightAware
05:27AM 38.8510 -74.6310 20° North 466 536 32,400 -2,580 Descending FlightAware
05:28AM 38.9210 -74.5970 21° North 464 534 30,900 -2,520 Descending FlightAware
05:29AM 38.9930 -74.5620 21° North 467 537 29,500 -2,400 Descending FlightAware
05:29AM 39.0630 -74.5270 21° North 463 533 28,100 -2,520 Descending FlightAware
05:30AM 39.1340 -74.4920 21° North 452 520 26,600 -2,400 Descending FlightAware
05:30AM 39.2050 -74.4580 20° North 447 514 25,300 -2,340 Descending FlightAware
05:31AM 39.2730 -74.4240 21° North 449 517 23,900 -2,340 Descending FlightAware
05:31AM 39.3400 -74.3910 21° North 445 512 22,600 -2,280 Descending FlightAware
05:32AM 39.4080 -74.3570 21° North 433 498 21,300 -2,280 Descending FlightAware
05:33AM 39.4740 -74.3250 21° North 431 496 20,000 -2,280 Descending FlightAware
05:33AM 39.5400 -74.2910 22° Northeast 434 499 18,700 -1,980 Descending FlightAware
05:34AM 39.5920 -74.2600 25° Northeast 420 483 17,900 -1,140 Descending FlightAware
05:34AM 39.6450 -74.2020 40° Northeast 400 460 17,500 -720 Descending FlightAware
05:35AM 39.6980 -74.1430 41° Northeast 367 422 17,000 -1,080 Descending FlightAware
05:36AM 39.7440 -74.0930 40° Northeast 363 418 16,200 -1,440 Descending FlightAware
05:36AM 39.7880 -74.0440 41° Northeast 358 412 15,300 -1,440 Descending FlightAware
05:37AM 39.8390 -73.9880 40° Northeast 349 402 14,400 -1,560 Descending FlightAware
05:37AM 39.8890 -73.9520 29° Northeast 343 395 13,400 -1,980 Descending FlightAware
05:38AM 39.9370 -73.9180 29° Northeast 343 395 12,100 -2,040 Descending FlightAware
05:39AM 39.9940 -73.8790 28° Northeast 344 396 10,900 -900 Descending FlightAware
05:39AM 40.0440 -73.8460 27° Northeast 324 373 11,000 60 Climbing FlightAware
05:40AM 40.0910 -73.8140 28° Northeast 331 381 11,000  Level FlightAware
05:41AM 40.1540 -73.7720 27° Northeast 331 381 11,000 -480 Level FlightAware
05:41AM 40.1950 -73.7410 30° Northeast 328 377 10,400 -1,260 Descending FlightAware
05:42AM 40.2240 -73.7030 45° Northeast 321 369 9,800 -1,380 Descending FlightAware
05:42AM 40.2470 -73.6730 45° Northeast 318 366 9,300 -1,440 Descending FlightAware
05:42AM 40.2650 -73.6480 47° Northeast 314 361 8,900 -1,500 Descending FlightAware
05:43AM 40.2850 -73.6220 45° Northeast 311 358 8,400 -1,800 Descending FlightAware
05:43AM 40.3070 -73.5940 44° Northeast 313 360 7,700 -1,680 Descending FlightAware
05:43AM 40.3250 -73.5710 44° Northeast 309 356 7,300 -1,320 Descending FlightAware
05:43AM 40.3370 -73.5590 37° Northeast 308 354 7,100 -1,380 Descending FlightAware
05:44AM 40.3470 -73.5510 31° Northeast 307 353 6,900 -1,260 Descending FlightAware
05:44AM 40.3730 -73.5350 25° Northeast 302 348 6,500 -1,500 Descending FlightAware
05:44AM 40.3980 -73.5200 25° Northeast 301 346 5,900 -1,620 Descending FlightAware
05:44AM 40.4220 -73.5050 25° Northeast 299 344 5,500 -1,500 Descending FlightAware
05:45AM 40.4440 -73.4910 26° Northeast 296 341 5,000 -1,500 Descending FlightAware
05:45AM 40.4630 -73.4790 26° Northeast 296 341 4,600 -1,500 Descending FlightAware
05:45AM 40.4920 -73.4610 25° Northeast 297 342 4,000 -1,080 Descending FlightAware
05:46AM 40.5140 -73.4490 23° Northeast 296 341 3,900  Descending FlightAware
05:46AM 40.5420 -73.4440 North 271 312 4,000 120 Climbing FlightAware
05:46AM 40.5640 -73.4400 North 255 293 4,000  Level FlightAware
05:47AM 40.5880 -73.4370 North 250 288 4,000  Level FlightAware
05:47AM 40.6060 -73.4340 North 249 287 4,000  Level FlightAware
05:47AM 40.6210 -73.4310 North 248 285 4,000  Level FlightAware
05:48AM 40.6500 -73.4270 North 248 285 4,000  Level FlightAware
05:48AM 40.6720 -73.4360 343° North 240 276 4,000 -180 Level FlightAware
05:48AM 40.6960 -73.4540 330° Northwest 238 274 3,900 -540 Descending FlightAware
05:49AM 40.7090 -73.4630 332° Northwest 228 262 3,700 -840 Descending FlightAware
05:49AM 40.7280 -73.4760 333° Northwest 215 247 3,400 -1,080 Descending FlightAware
05:49AM 40.7540 -73.4940 332° Northwest 215 247 2,800 -1,380 Descending FlightAware
05:50AM 40.7630 -73.5030 323° Northwest 209 241 2,500 -1,200 Descending FlightAware
05:50AM 40.7690 -73.5120 311° West 204 235 2,400 -840 Descending FlightAware
05:50AM 40.7790 -73.5300 306° West 198 228 2,100 -660 Descending FlightAware
05:50AM 40.7880 -73.5480 303° West 198 228 2,000 -240 Descending FlightAware
05:51AM 40.7920 -73.5600 294° West 191 220 2,000  Level FlightAware
05:51AM 40.7940 -73.5690 286° West 184 212 2,000  Level FlightAware
05:51AM 40.7950 -73.5860 274° West 174 200 2,000  Level FlightAware
05:51AM 40.7890 -73.6090 251° West 159 183 2,000  Level FlightAware
05:52AM 40.7810 -73.6300 243° Southwest 160 184 2,000  Level FlightAware
05:52AM 40.7760 -73.6450 246° West 160 184 2,000  Level FlightAware
05:52AM 40.7730 -73.6530 244° Southwest 157 181 2,000  Level FlightAware
05:52AM 40.7710 -73.6550 217° Southwest 155 178 2,000  Level FlightAware
05:52AM 40.7640 -73.6610 213° Southwest 138 159 2,000  Level FlightAware
05:53AM 40.7560 -73.6680 214° Southwest 127 146 2,000  Level FlightAware
05:53AM 40.7480 -73.6740 210° Southwest 123 142 2,000  Level FlightAware
05:53AM 40.7370 -73.6830 212° Southwest 122 140 2,000 -300 Level FlightAware
05:54AM 40.7280 -73.6900 211° Southwest 121 139 1,800 -720 Descending FlightAware
05:54AM 40.7210 -73.6960 213° Southwest 121 139 1,600 -600 Descending FlightAware
05:55AM 40.7340 -73.7250 301° West 127 146 1,300 -540 Descending FlightAware
05:55AM 40.7240 -73.7340 214° Southwest 126 145 1,100 -780 Descending FlightAware
05:55AM 40.7140 -73.7420 211° Southwest 127 146 800 -660 Descending FlightAware
05:56AM 40.7050 -73.7490 211° Southwest 129 148 700 -600 Descending FlightAware
05:56AM 40.6630 -73.7410 172° South 123 142 400 -720 Descending FlightAware
05:56AM 40.6530 -73.7490 211° Southwest 127 146 200 -600 Descending FlightAware
05:57AM 40.6420 -73.7580 212° Southwest 132 152 -600 Descending FlightAware
05:57AM 40.6330 -73.7650 211° Southwest 76 87  Level FlightAware